Time;durP1;ratioP1;P1;durP2;ratioP2;P2;SDS_P1;SDS_P2;PMS_P1;PMS_P2;Temp;Humidity;BMP_temperature;BMP_pressure;BME280_temperature;BME280_humidity;BME280_pressure;Samples;Min_cycle;Max_cycle;Signal;HPM_P1;HPM_P2
2021/10/25 00:00:52;;;;;;;;;;;;;;;;;;2082619;28;1361;-84
2021/10/25 00:01:53;;;;;;;;;;;;;;;;;;2090737;28;1488;-83
2021/10/25 00:02:56;;;;;;;;;;;;;;;;;;2078879;28;2004;-84
2021/10/25 00:03:57;;;;;;;;;;;;;;;;;;2090793;28;1263;-83
2021/10/25 00:04:59;;;;;;;;;;;;;;;;;;2082486;28;1282;-84
2021/10/25 00:06:01;;;;;;;;;;;;;;;;;;2082878;28;1332;-84
2021/10/25 00:07:03;;;;;;;;;;;;;;;;;;2091076;28;1291;-84
2021/10/25 00:08:05;;;;;;;;;;;;;;;;;;2091121;28;1374;-83
2021/10/25 00:09:09;;;;;;;;;;;;;;;;;;2090759;28;1271;-83
2021/10/25 00:10:11;;;;;;;;;;;;;;;;;;2082682;28;1387;-84
2021/10/25 00:11:13;;;;;;;;;;;;;;;;;;2082895;28;1239;-84
2021/10/25 00:12:15;;;;;;;;;;;;;;;;;;2082781;28;1416;-84
2021/10/25 00:13:16;;;;;;;;;;;;;;;;;;2090153;28;1830;-84
2021/10/25 00:14:17;;;;;;;;;;;;;;;;;;2082890;28;1327;-84
2021/10/25 00:15:18;;;;;;;;;;;;;;;;;;2074240;28;1207;-84
2021/10/25 00:16:20;;;;;;;;;;;;;;;;;;2074589;28;1303;-84
2021/10/25 00:17:21;;;;;;;;;;;;;;;;;;2074593;28;1970;-84
2021/10/25 00:18:25;;;;;;;;;;;;;;;;;;2074846;28;1334;-84
2021/10/25 00:19:26;;;;;;;;;;;;;;;;;;2074792;28;1192;-83
2021/10/25 00:20:28;;;;;;;;;;;;;;;;;;2074415;28;1259;-83
2021/10/25 00:21:28;;;;;;;;;;;;;;;;;;2082866;28;1195;-83
2021/10/25 00:22:30;;;;;;;;;;;;;;;;;;2083304;28;2220;-84
2021/10/25 00:23:31;;;;;;;;;;;;;;;;;;2076119;28;1337;-83
2021/10/25 00:24:34;;;;;;;;;;;;;;;;;;2084341;28;1289;-84
2021/10/25 00:25:35;;;;;;;;;;;;;;;;;;2091813;28;1899;-84
2021/10/25 00:26:36;;;;;;;;;;;;;;;;;;2092587;28;1419;-84
2021/10/25 00:27:37;;;;;;;;;;;;;;;;;;2092139;28;1259;-84
2021/10/25 00:28:39;;;;;;;;;;;;;;;;;;2092808;28;1350;-84
2021/10/25 00:29:40;;;;;;;;;;;;;;;;;;2092575;28;1377;-84
2021/10/25 00:30:42;;;;;;;;;;;;;;;;;;2083939;28;1285;-83
2021/10/25 00:31:43;;;;;;;;;;;;;;;;;;2092505;28;1187;-84
2021/10/25 00:32:45;;;;;;;;;;;;;;;;;;2100642;28;1234;-84
2021/10/25 00:33:46;;;;;;;;;;;;;;;;;;2092682;28;1202;-84
2021/10/25 00:34:47;;;;;;;;;;;;;;;;;;2083965;28;1302;-84
2021/10/25 00:35:48;;;;;;;;;;;;;;;;;;2084262;28;1434;-84
2021/10/25 00:36:50;;;;;;;;;;;;;;;;;;2084332;28;1349;-84
2021/10/25 00:37:51;;;;;;;;;;;;;;;;;;2084156;28;1977;-84
2021/10/25 00:38:53;;;;;;;;;;;;;;;;;;2084266;28;1381;-84
2021/10/25 00:39:58;;;;;;;;;;;;;;;;;;2084231;28;1239;-84
2021/10/25 00:40:59;;;;;;;;;;;;;;;;;;2092581;28;879;-85
2021/10/25 00:42:01;;;;;;;;;;;;;;;;;;2092327;28;1308;-83
2021/10/25 00:43:02;;;;;;;;;;;;;;;;;;2084294;28;1298;-85
2021/10/25 00:44:04;;;;;;;;;;;;;;;;;;2084372;28;1264;-84
2021/10/25 00:45:05;;;;;;;;;;;;;;;;;;2084232;28;1354;-85
2021/10/25 00:46:08;;;;;;;;;;;;;;;;;;2084210;28;1285;-84
2021/10/25 00:47:08;;;;;;;;;;;;;;;;;;2092195;28;843;-84
2021/10/25 00:48:10;;;;;;;;;;;;;;;;;;2086495;28;1410;-84
2021/10/25 00:49:11;;;;;;;;;;;;;;;;;;2075428;28;1455;-85
2021/10/25 00:50:13;;;;;;;;;;;;;;;;;;2084280;28;1259;-83
2021/10/25 00:51:14;;;;;;;;;;;;;;;;;;2084120;28;1255;-84
2021/10/25 00:52:18;;;;;;;;;;;;;;;;;;2084188;28;1292;-83
2021/10/25 00:53:18;;;;;;;;;;;;;;;;;;2092235;28;2114;-84
2021/10/25 00:54:20;;;;;;;;;;;;;;;;;;2084006;28;1361;-83
2021/10/25 00:55:23;;;;;;;;;;;;;;;;;;2083747;28;1307;-84
2021/10/25 00:56:25;;;;;;;;;;;;;;;;;;2092361;28;879;-82
2021/10/25 00:57:25;;;;;;;;;;;;;;;;;;2092063;28;1983;-84
2021/10/25 00:58:27;;;;;;;;;;;;;;;;;;2092601;28;1428;-83
2021/10/25 00:59:28;;;;;;;;;;;;;;;;;;2075639;28;1360;-83
2021/10/25 01:00:30;;;;;;;;;;;;;;;;;;2075423;28;1363;-84
2021/10/25 01:01:31;;;;;;;;;;;;;;;;;;2083809;28;848;-84
2021/10/25 01:02:33;;;;;;;;;;;;;;;;;;2084385;28;1366;-83
2021/10/25 01:03:35;;;;;;;;;;;;;;;;;;2083884;28;936;-84
2021/10/25 01:04:37;;;;;;;;;;;;;;;;;;2092503;28;1373;-83
2021/10/25 01:05:37;;;;;;;;;;;;;;;;;;2092983;28;1909;-85
2021/10/25 01:06:40;;;;;;;;;;;;;;;;;;2092279;28;1246;-83
2021/10/25 01:07:40;;;;;;;;;;;;;;;;;;2091620;28;1844;-83
2021/10/25 01:08:44;;;;;;;;;;;;;;;;;;2092095;28;1173;-84
2021/10/25 01:09:45;;;;;;;;;;;;;;;;;;2083902;28;1239;-83
2021/10/25 01:10:48;;;;;;;;;;;;;;;;;;2092252;28;1767;-84
2021/10/25 01:11:49;;;;;;;;;;;;;;;;;;2092186;28;1235;-83
2021/10/25 01:12:52;;;;;;;;;;;;;;;;;;2091871;28;2026;-83
2021/10/25 01:13:53;;;;;;;;;;;;;;;;;;2083962;28;1381;-84
2021/10/25 01:14:55;;;;;;;;;;;;;;;;;;2075667;28;1314;-83
2021/10/25 01:15:56;;;;;;;;;;;;;;;;;;2075476;28;1413;-83
2021/10/25 01:16:58;;;;;;;;;;;;;;;;;;2075353;28;1402;-83
2021/10/25 01:18:00;;;;;;;;;;;;;;;;;;2080349;28;1906;-83
2021/10/25 01:19:02;;;;;;;;;;;;;;;;;;2083671;28;1572;-84
2021/10/25 01:20:04;;;;;;;;;;;;;;;;;;2084067;28;1292;-83
2021/10/25 01:21:06;;;;;;;;;;;;;;;;;;2083745;28;1835;-83
2021/10/25 01:22:07;;;;;;;;;;;;;;;;;;2075704;28;1204;-83
2021/10/25 01:23:11;;;;;;;;;;;;;;;;;;2083962;28;2079;-83
2021/10/25 01:24:12;;;;;;;;;;;;;;;;;;2092136;28;1231;-83
2021/10/25 01:25:14;;;;;;;;;;;;;;;;;;2083501;28;1274;-84
2021/10/25 01:26:15;;;;;;;;;;;;;;;;;;2075699;28;1487;-83
2021/10/25 01:27:19;;;;;;;;;;;;;;;;;;2075951;28;1321;-84
2021/10/25 01:28:20;;;;;;;;;;;;;;;;;;2076281;28;2096;-82
2021/10/25 01:29:21;;;;;;;;;;;;;;;;;;2075517;28;1320;-83
2021/10/25 01:30:22;;;;;;;;;;;;;;;;;;2075760;28;1135;-83
2021/10/25 01:31:24;;;;;;;;;;;;;;;;;;2074796;28;1426;-83
2021/10/25 01:32:25;;;;;;;;;;;;;;;;;;2075974;28;1881;-85
2021/10/25 01:33:29;;;;;;;;;;;;;;;;;;2083482;28;1211;-83
2021/10/25 01:34:30;;;;;;;;;;;;;;;;;;2075064;28;1183;-83
2021/10/25 01:35:33;;;;;;;;;;;;;;;;;;2075389;28;1223;-84
2021/10/25 01:36:35;;;;;;;;;;;;;;;;;;2075676;28;1010;-83
2021/10/25 01:37:37;;;;;;;;;;;;;;;;;;2076230;28;2029;-83
2021/10/25 01:38:39;;;;;;;;;;;;;;;;;;2083936;28;1057;-84
2021/10/25 01:39:39;;;;;;;;;;;;;;;;;;2092034;28;1416;-83
2021/10/25 01:40:42;;;;;;;;;;;;;;;;;;2092261;28;1528;-83
2021/10/25 01:41:43;;;;;;;;;;;;;;;;;;2083875;28;1381;-83
2021/10/25 01:42:44;;;;;;;;;;;;;;;;;;2083490;28;1316;-83
2021/10/25 01:43:47;;;;;;;;;;;;;;;;;;2083537;28;1244;-84
2021/10/25 01:44:48;;;;;;;;;;;;;;;;;;2083384;28;1287;-83
2021/10/25 01:45:49;;;;;;;;;;;;;;;;;;2083305;28;1396;-84
2021/10/25 01:46:50;;;;;;;;;;;;;;;;;;2092111;28;1229;-83
2021/10/25 01:48:04;;;;;;;;;;;;;;;;;;2091671;28;2159;-83
2021/10/25 01:49:05;;;;;;;;;;;;;;;;;;2083510;28;1278;-84
2021/10/25 01:50:07;;;;;;;;;;;;;;;;;;2075552;28;1579;-83
2021/10/25 01:51:10;;;;;;;;;;;;;;;;;;2083686;28;1305;-84
2021/10/25 01:52:14;;;;;;;;;;;;;;;;;;2083202;28;1148;-83
2021/10/25 01:53:19;;;;;;;;;;;;;;;;;;2091158;28;1856;-83
2021/10/25 01:54:25;;;;;;;;;;;;;;;;;;2083701;28;1043;-83
2021/10/25 01:55:26;;;;;;;;;;;;;;;;;;2083479;28;1374;-84
2021/10/25 01:56:29;;;;;;;;;;;;;;;;;;2099420;28;1968;-83
2021/10/25 01:57:30;;;;;;;;;;;;;;;;;;2091336;28;2011;-83
2021/10/25 01:58:32;;;;;;;;;;;;;;;;;;2083577;28;1914;-82
2021/10/25 01:59:36;;;;;;;;;;;;;;;;;;2075591;28;1410;-83
2021/10/25 02:00:38;;;;;;;;;;;;;;;;;;2075327;28;1425;-83
2021/10/25 02:01:39;;;;;;;;;;;;;;;;;;2074935;28;1339;-82
2021/10/25 02:02:42;;;;;;;;;;;;;;;;;;2075289;28;2080;-83
2021/10/25 02:04:02;;;;;;;;;;;;;;;;;;2086041;28;1134;-83
2021/10/25 02:05:04;;;;;;;;;;;;;;;;;;2091732;28;1521;-83
2021/10/25 02:06:06;;;;;;;;;;;;;;;;;;2091538;28;1479;-83
2021/10/25 02:07:09;;;;;;;;;;;;;;;;;;2083461;28;1306;-83
2021/10/25 02:08:10;;;;;;;;;;;;;;;;;;2083742;28;1947;-83
2021/10/25 02:09:38;;;;;;;;;;;;;;;;;;2081260;28;1185;-82
2021/10/25 02:10:39;;;;;;;;;;;;;;;;;;2087249;28;1331;-83
2021/10/25 02:11:41;;;;;;;;;;;;;;;;;;2091430;28;1309;-82
2021/10/25 02:12:43;;;;;;;;;;;;;;;;;;2083021;28;2004;-83
2021/10/25 02:13:45;;;;;;;;;;;;;;;;;;2075181;28;1278;-83
2021/10/25 02:14:46;;;;;;;;;;;;;;;;;;2075176;28;1191;-82
2021/10/25 02:15:48;;;;;;;;;;;;;;;;;;2075248;28;1068;-83
2021/10/25 02:16:51;;;;;;;;;;;;;;;;;;2075566;28;1036;-82
2021/10/25 02:17:53;;;;;;;;;;;;;;;;;;2083651;28;1981;-83
2021/10/25 02:18:54;;;;;;;;;;;;;;;;;;2083336;28;1389;-82
2021/10/25 02:20:01;;;;;;;;;;;;;;;;;;2075655;28;1310;-83
2021/10/25 02:21:03;;;;;;;;;;;;;;;;;;2075144;28;1350;-83
2021/10/25 02:22:05;;;;;;;;;;;;;;;;;;2075478;28;1580;-82
2021/10/25 02:23:07;;;;;;;;;;;;;;;;;;2080521;28;1961;-83
2021/10/25 02:24:10;;;;;;;;;;;;;;;;;;2083495;28;1495;-83
2021/10/25 02:25:12;;;;;;;;;;;;;;;;;;2083466;28;1480;-84
2021/10/25 02:26:13;;;;;;;;;;;;;;;;;;2091662;28;1527;-84
2021/10/25 02:27:14;;;;;;;;;;;;;;;;;;2082981;28;1192;-84
2021/10/25 02:28:16;;;;;;;;;;;;;;;;;;2092016;28;2042;-83
2021/10/25 02:29:19;;;;;;;;;;;;;;;;;;2091665;28;1370;-84
2021/10/25 02:30:21;;;;;;;;;;;;;;;;;;2083588;28;1399;-84
2021/10/25 02:31:24;;;;;;;;;;;;;;;;;;2083985;28;1887;-84
2021/10/25 02:32:27;;;;;;;;;;;;;;;;;;2091466;28;1995;-84
2021/10/25 02:33:27;;;;;;;;;;;;;;;;;;2082780;28;1309;-84
2021/10/25 02:34:30;;;;;;;;;;;;;;;;;;2083263;28;1251;-84
2021/10/25 02:35:32;;;;;;;;;;;;;;;;;;2091313;28;1800;-85
2021/10/25 02:36:33;;;;;;;;;;;;;;;;;;2091664;28;1194;-83
2021/10/25 02:37:34;;;;;;;;;;;;;;;;;;2092006;28;2015;-85
2021/10/25 02:38:37;;;;;;;;;;;;;;;;;;2083365;28;1906;-85
2021/10/25 02:39:39;;;;;;;;;;;;;;;;;;2074946;28;1161;-84
2021/10/25 02:40:40;;;;;;;;;;;;;;;;;;2083816;28;1836;-85
2021/10/25 02:41:42;;;;;;;;;;;;;;;;;;2091052;28;1274;-85
2021/10/25 02:42:43;;;;;;;;;;;;;;;;;;2085807;28;2008;-84
2021/10/25 02:43:45;;;;;;;;;;;;;;;;;;2091435;28;1226;-84
2021/10/25 02:44:45;;;;;;;;;;;;;;;;;;2091839;28;1322;-84
2021/10/25 02:45:50;;;;;;;;;;;;;;;;;;2088687;28;1828;-85
2021/10/25 02:46:51;;;;;;;;;;;;;;;;;;2083155;28;1282;-84
2021/10/25 02:47:54;;;;;;;;;;;;;;;;;;2083389;28;1889;-83
2021/10/25 02:48:56;;;;;;;;;;;;;;;;;;2075293;28;1404;-84
2021/10/25 02:49:58;;;;;;;;;;;;;;;;;;2075108;28;1251;-84
2021/10/25 02:51:02;;;;;;;;;;;;;;;;;;2075815;28;1504;-84
2021/10/25 02:52:04;;;;;;;;;;;;;;;;;;2083267;28;1342;-84
2021/10/25 02:53:09;;;;;;;;;;;;;;;;;;2088716;28;2016;-84
2021/10/25 02:54:12;;;;;;;;;;;;;;;;;;2083243;28;1276;-84
2021/10/25 02:55:21;;;;;;;;;;;;;;;;;;2084161;28;1397;-84
2021/10/25 02:56:24;;;;;;;;;;;;;;;;;;2091657;28;1297;-84
2021/10/25 02:57:26;;;;;;;;;;;;;;;;;;2083155;28;2008;-84
2021/10/25 02:58:29;;;;;;;;;;;;;;;;;;2083132;28;1935;-84
2021/10/25 02:59:31;;;;;;;;;;;;;;;;;;2082990;28;1514;-84
2021/10/25 03:00:33;;;;;;;;;;;;;;;;;;2083267;28;1507;-84
2021/10/25 03:01:36;;;;;;;;;;;;;;;;;;2082872;28;1584;-84
2021/10/25 03:02:38;;;;;;;;;;;;;;;;;;2083478;28;2094;-83
2021/10/25 03:03:39;;;;;;;;;;;;;;;;;;2091276;28;1258;-83
2021/10/25 03:04:41;;;;;;;;;;;;;;;;;;2083193;28;1258;-83
2021/10/25 03:05:41;;;;;;;;;;;;;;;;;;2082973;28;1302;-84
2021/10/25 03:06:43;;;;;;;;;;;;;;;;;;2083246;28;1210;-83
2021/10/25 03:07:45;;;;;;;;;;;;;;;;;;2074850;28;2013;-83
2021/10/25 03:08:47;;;;;;;;;;;;;;;;;;2075191;28;1393;-83
2021/10/25 03:09:50;;;;;;;;;;;;;;;;;;2074619;28;1250;-83
2021/10/25 03:10:52;;;;;;;;;;;;;;;;;;2083286;28;1600;-83
2021/10/25 03:11:53;;;;;;;;;;;;;;;;;;2082901;28;1212;-83
2021/10/25 03:12:55;;;;;;;;;;;;;;;;;;2083059;28;1925;-83
2021/10/25 03:13:56;;;;;;;;;;;;;;;;;;2082796;28;1295;-83
2021/10/25 03:15:03;;;;;;;;;;;;;;;;;;2075356;28;1440;-83
2021/10/25 03:16:05;;;;;;;;;;;;;;;;;;2082926;28;1433;-84
2021/10/25 03:17:07;;;;;;;;;;;;;;;;;;2090878;28;1258;-84
2021/10/25 03:18:17;;;;;;;;;;;;;;;;;;2091954;28;1963;-83
2021/10/25 03:19:19;;;;;;;;;;;;;;;;;;2082943;28;1390;-84
2021/10/25 03:20:19;;;;;;;;;;;;;;;;;;2075077;28;1370;-84
2021/10/25 03:21:22;;;;;;;;;;;;;;;;;;2074481;28;1451;-84
2021/10/25 03:22:24;;;;;;;;;;;;;;;;;;2083319;28;1394;-84
2021/10/25 03:23:26;;;;;;;;;;;;;;;;;;2082929;28;1230;-83
2021/10/25 03:24:27;;;;;;;;;;;;;;;;;;2075167;28;1444;-83
2021/10/25 03:25:30;;;;;;;;;;;;;;;;;;2074772;28;1239;-83
2021/10/25 03:26:32;;;;;;;;;;;;;;;;;;2082960;28;1316;-83
2021/10/25 03:27:34;;;;;;;;;;;;;;;;;;2092308;28;2010;-84
2021/10/25 03:28:37;;;;;;;;;;;;;;;;;;2091139;28;1322;-83
2021/10/25 03:29:39;;;;;;;;;;;;;;;;;;2091423;28;1424;-83
2021/10/25 03:30:40;;;;;;;;;;;;;;;;;;2090908;28;1235;-84
2021/10/25 03:31:43;;;;;;;;;;;;;;;;;;2082587;28;1369;-84
2021/10/25 03:32:44;;;;;;;;;;;;;;;;;;2080936;28;2011;-84
2021/10/25 03:34:15;;;;;;;;;;;;;;;;;;2087148;28;1482;-84
2021/10/25 03:35:16;;;;;;;;;;;;;;;;;;2082798;28;1518;-85
2021/10/25 03:36:19;;;;;;;;;;;;;;;;;;2074885;28;1468;-84
2021/10/25 03:37:21;;;;;;;;;;;;;;;;;;2074568;28;1364;-85
2021/10/25 03:38:23;;;;;;;;;;;;;;;;;;2075461;28;2073;-85
2021/10/25 03:39:27;;;;;;;;;;;;;;;;;;2074834;28;1442;-84
2021/10/25 03:40:31;;;;;;;;;;;;;;;;;;2075220;28;1337;-85
2021/10/25 03:41:35;;;;;;;;;;;;;;;;;;2083176;28;1440;-84
2021/10/25 03:42:41;;;;;;;;;;;;;;;;;;2090365;28;1225;-83
2021/10/25 03:43:47;;;;;;;;;;;;;;;;;;2075396;28;1206;-83
2021/10/25 03:44:54;;;;;;;;;;;;;;;;;;2083275;28;1565;-83
2021/10/25 03:46:04;;;;;;;;;;;;;;;;;;2082781;28;1551;-83
2021/10/25 03:47:08;;;;;;;;;;;;;;;;;;2075752;28;1369;-83
2021/10/25 03:48:18;;;;;;;;;;;;;;;;;;2083532;28;1873;-83
2021/10/25 03:49:26;;;;;;;;;;;;;;;;;;2082714;28;1243;-83
2021/10/25 03:51:04;;;;;;;;;;;;;;;;;;2071631;28;1299;-83
2021/10/25 03:52:14;;;;;;;;;;;;;;;;;;2074553;28;1546;-82
2021/10/25 03:53:21;;;;;;;;;;;;;;;;;;2076846;28;1907;-83
2021/10/25 03:54:32;;;;;;;;;;;;;;;;;;2083834;28;1391;-84
2021/10/25 03:55:40;;;;;;;;;;;;;;;;;;2084304;28;1226;-84
2021/10/25 03:56:55;;;;;;;;;;;;;;;;;;2083627;28;1427;-83
2021/10/25 03:59:39;;;;;;;;;;;;;;;;;;2059560;28;1987;-84
2021/10/25 04:03:42;;;;;;;;;;;;;;;;;;2084978;28;1893;-84
2021/10/25 04:26:48;;;;;;;;;;;;;;;;;;2070153;28;1625;-79
2021/10/25 04:27:53;;;;;;;;;;;;;;;;;;2078009;28;1887;-80
2021/10/25 04:28:55;;;;;;;;;;;;;;;;;;2076164;28;1394;-79
2021/10/25 04:30:02;;;;;;;;;;;;;;;;;;2075969;28;1388;-80
2021/10/25 04:31:04;;;;;;;;;;;;;;;;;;2075711;28;964;-81
2021/10/25 04:32:14;;;;;;;;;;;;;;;;;;2077025;28;1030;-81
2021/10/25 04:33:17;;;;;;;;;;;;;;;;;;2075807;28;1441;-80
2021/10/25 04:34:27;;;;;;;;;;;;;;;;;;2077410;28;1713;-80
2021/10/25 04:35:53;;;;;;;;;;;;;;;;;;2075637;28;1534;-81
2021/10/25 04:37:17;;;;;;;;;;;;;;;;;;2084177;28;1690;-80
2021/10/25 04:38:20;;;;;;;;;;;;;;;;;;2083801;28;1208;-81
2021/10/25 04:39:21;;;;;;;;;;;;;;;;;;2075665;28;1981;-81
2021/10/25 04:40:22;;;;;;;;;;;;;;;;;;2075258;28;1164;-80
2021/10/25 04:41:24;;;;;;;;;;;;;;;;;;2083900;28;1279;-81
2021/10/25 04:42:26;;;;;;;;;;;;;;;;;;2075707;28;1917;-81
2021/10/25 04:43:28;;;;;;;;;;;;;;;;;;2067644;28;1269;-80
2021/10/25 04:44:30;;;;;;;;;;;;;;;;;;2075951;28;1418;-80
2021/10/25 04:45:32;;;;;;;;;;;;;;;;;;2075490;28;1719;-81
2021/10/25 04:46:35;;;;;;;;;;;;;;;;;;2068061;28;1191;-80
2021/10/25 04:47:38;;;;;;;;;;;;;;;;;;2076683;28;2064;-80
2021/10/25 04:48:49;;;;;;;;;;;;;;;;;;2084024;28;1394;-80
2021/10/25 04:49:56;;;;;;;;;;;;;;;;;;2083876;28;1326;-80
2021/10/25 04:51:00;;;;;;;;;;;;;;;;;;2083830;28;867;-80
2021/10/25 04:52:31;;;;;;;;;;;;;;;;;;2072879;28;2040;-80
2021/10/25 04:53:32;;;;;;;;;;;;;;;;;;2083616;28;1268;-80
2021/10/25 04:54:34;;;;;;;;;;;;;;;;;;2075486;28;1359;-80
2021/10/25 04:55:35;;;;;;;;;;;;;;;;;;2075650;28;1454;-80
2021/10/25 04:56:37;;;;;;;;;;;;;;;;;;2076001;28;1511;-80
2021/10/25 04:57:39;;;;;;;;;;;;;;;;;;2075900;28;1313;-80
2021/10/25 04:58:41;;;;;;;;;;;;;;;;;;2075695;28;1938;-80
2021/10/25 04:59:42;;;;;;;;;;;;;;;;;;2075484;28;1534;-80
2021/10/25 05:00:43;;;;;;;;;;;;;;;;;;2075496;28;1670;-79
2021/10/25 05:01:44;;;;;;;;;;;;;;;;;;2074963;28;1378;-82
2021/10/25 05:02:46;;;;;;;;;;;;;;;;;;2086230;28;1914;-79
2021/10/25 05:03:47;;;;;;;;;;;;;;;;;;2083560;28;1303;-80
2021/10/25 05:04:48;;;;;;;;;;;;;;;;;;2075692;28;1377;-80
2021/10/25 05:05:49;;;;;;;;;;;;;;;;;;2083583;28;1264;-80
2021/10/25 05:06:51;;;;;;;;;;;;;;;;;;2091706;28;1523;-81
2021/10/25 05:07:53;;;;;;;;;;;;;;;;;;2080013;28;2084;-79
2021/10/25 05:08:54;;;;;;;;;;;;;;;;;;2067257;28;1536;-80
2021/10/25 05:09:56;;;;;;;;;;;;;;;;;;2075479;28;1253;-80
2021/10/25 05:10:59;;;;;;;;;;;;;;;;;;2075607;28;1422;-82
2021/10/25 05:11:59;;;;;;;;;;;;;;;;;;2067558;28;1312;-80
2021/10/25 05:13:02;;;;;;;;;;;;;;;;;;2067978;28;1864;-80
2021/10/25 05:14:03;;;;;;;;;;;;;;;;;;2075520;28;1240;-80
2021/10/25 05:15:07;;;;;;;;;;;;;;;;;;2075370;28;1521;-78
2021/10/25 05:16:08;;;;;;;;;;;;;;;;;;2075752;28;1415;-80
2021/10/25 05:17:12;;;;;;;;;;;;;;;;;;2075312;28;1347;-80
2021/10/25 05:18:17;;;;;;;;;;;;;;;;;;2075081;28;1951;-80
2021/10/25 05:19:18;;;;;;;;;;;;;;;;;;2083513;28;1910;-80
2021/10/25 05:20:24;;;;;;;;;;;;;;;;;;2083470;28;1571;-80
2021/10/25 05:21:25;;;;;;;;;;;;;;;;;;2083554;28;1552;-80
2021/10/25 05:22:27;;;;;;;;;;;;;;;;;;2083207;28;1847;-81
2021/10/25 05:23:28;;;;;;;;;;;;;;;;;;2083038;28;1331;-80
2021/10/25 05:24:30;;;;;;;;;;;;;;;;;;2083718;28;1360;-80
2021/10/25 05:25:32;;;;;;;;;;;;;;;;;;2075418;28;1425;-80
2021/10/25 05:26:34;;;;;;;;;;;;;;;;;;2074994;28;1507;-80
2021/10/25 05:27:36;;;;;;;;;;;;;;;;;;2075791;28;2005;-80
2021/10/25 05:28:41;;;;;;;;;;;;;;;;;;2075639;28;1412;-80
2021/10/25 05:29:42;;;;;;;;;;;;;;;;;;2075110;28;1259;-80
2021/10/25 05:30:45;;;;;;;;;;;;;;;;;;2075467;28;1640;-80
2021/10/25 05:31:54;;;;;;;;;;;;;;;;;;2076662;28;1475;-83
2021/10/25 05:32:56;;;;;;;;;;;;;;;;;;2075267;28;1705;-79
2021/10/25 05:33:57;;;;;;;;;;;;;;;;;;2075342;28;1223;-80
2021/10/25 05:34:58;;;;;;;;;;;;;;;;;;2074988;28;1562;-84
2021/10/25 05:36:02;;;;;;;;;;;;;;;;;;2075746;28;1314;-80
2021/10/25 05:37:05;;;;;;;;;;;;;;;;;;2075173;28;1552;-80
2021/10/25 05:38:07;;;;;;;;;;;;;;;;;;2081344;28;2099;-80
2021/10/25 05:39:10;;;;;;;;;;;;;;;;;;2091314;28;1977;-80
2021/10/25 05:40:12;;;;;;;;;;;;;;;;;;2083551;28;1264;-80
2021/10/25 05:41:24;;;;;;;;;;;;;;;;;;2076231;28;1410;-80
2021/10/25 05:42:25;;;;;;;;;;;;;;;;;;2075657;28;2062;-80
2021/10/25 05:43:27;;;;;;;;;;;;;;;;;;2082744;28;1592;-80
2021/10/25 05:44:29;;;;;;;;;;;;;;;;;;2083085;28;1530;-80
2021/10/25 05:45:31;;;;;;;;;;;;;;;;;;2091423;28;2031;-81
2021/10/25 05:46:32;;;;;;;;;;;;;;;;;;2083546;28;1200;-80
2021/10/25 05:47:35;;;;;;;;;;;;;;;;;;2083470;28;2026;-80
2021/10/25 05:48:41;;;;;;;;;;;;;;;;;;2083500;28;1524;-80
2021/10/25 05:49:43;;;;;;;;;;;;;;;;;;2075589;28;1422;-80
2021/10/25 05:50:46;;;;;;;;;;;;;;;;;;2075034;28;1710;-80
2021/10/25 05:51:48;;;;;;;;;;;;;;;;;;2083235;28;894;-80
2021/10/25 05:52:52;;;;;;;;;;;;;;;;;;2083930;28;1916;-79
2021/10/25 05:53:54;;;;;;;;;;;;;;;;;;2075164;28;1576;-80
2021/10/25 05:54:57;;;;;;;;;;;;;;;;;;2075601;28;1704;-80
2021/10/25 05:55:59;;;;;;;;;;;;;;;;;;2083262;28;1689;-80
2021/10/25 05:57:01;;;;;;;;;;;;;;;;;;2091703;28;1446;-80
2021/10/25 05:58:05;;;;;;;;;;;;;;;;;;2083587;28;2020;-80
2021/10/25 05:59:06;;;;;;;;;;;;;;;;;;2083690;28;1985;-80
2021/10/25 06:00:12;;;;;;;;;;;;;;;;;;2092216;28;1262;-80
2021/10/25 06:01:17;;;;;;;;;;;;;;;;;;2092959;28;1870;-80
2021/10/25 06:02:35;;;;;;;;;;;;;;;;;;2083616;28;1868;-80
2021/10/25 06:03:53;;;;;;;;;;;;;;;;;;2077304;28;1532;-80
2021/10/25 06:04:55;;;;;;;;;;;;;;;;;;2075377;28;1515;-80
2021/10/25 06:06:01;;;;;;;;;;;;;;;;;;2083683;28;1356;-80
2021/10/25 06:07:03;;;;;;;;;;;;;;;;;;2083354;28;1228;-80
2021/10/25 06:08:04;;;;;;;;;;;;;;;;;;2075293;28;2047;-81
2021/10/25 06:09:08;;;;;;;;;;;;;;;;;;2075837;28;1373;-80
2021/10/25 06:10:13;;;;;;;;;;;;;;;;;;2083456;28;1282;-80
2021/10/25 06:11:21;;;;;;;;;;;;;;;;;;2084321;28;1189;-80
2021/10/25 06:12:21;;;;;;;;;;;;;;;;;;2091520;28;1348;-80
2021/10/25 06:13:44;;;;;;;;;;;;;;;;;;2089578;28;1661;-80
2021/10/25 06:14:51;;;;;;;;;;;;;;;;;;2084138;28;944;-80
2021/10/25 06:15:59;;;;;;;;;;;;;;;;;;2099780;28;1770;-80
2021/10/25 06:17:00;;;;;;;;;;;;;;;;;;2091499;28;1301;-80
2021/10/25 06:18:05;;;;;;;;;;;;;;;;;;2083063;28;1318;-80
2021/10/25 06:19:07;;;;;;;;;;;;;;;;;;2090168;28;1906;-80
2021/10/25 06:20:11;;;;;;;;;;;;;;;;;;2091607;28;1324;-79
2021/10/25 06:21:13;;;;;;;;;;;;;;;;;;2081018;28;1329;-80
2021/10/25 06:22:15;;;;;;;;;;;;;;;;;;2083614;28;1297;-80
2021/10/25 06:23:18;;;;;;;;;;;;;;;;;;2094909;28;1303;-80
2021/10/25 06:24:20;;;;;;;;;;;;;;;;;;2089362;28;1309;-80
2021/10/25 06:25:34;;;;;;;;;;;;;;;;;;2093177;28;2016;-80
2021/10/25 06:26:40;;;;;;;;;;;;;;;;;;2091212;28;1217;-78
2021/10/25 06:27:47;;;;;;;;;;;;;;;;;;2085946;28;1981;-79
2021/10/25 06:28:49;;;;;;;;;;;;;;;;;;2091601;28;1314;-78
2021/10/25 06:29:50;;;;;;;;;;;;;;;;;;2091515;28;1290;-78
2021/10/25 06:30:58;;;;;;;;;;;;;;;;;;2087766;28;1385;-79
2021/10/25 06:32:08;;;;;;;;;;;;;;;;;;2081684;28;1321;-81
2021/10/25 06:33:13;;;;;;;;;;;;;;;;;;2083648;28;2009;-81
2021/10/25 06:34:39;;;;;;;;;;;;;;;;;;2096314;28;1812;-80
2021/10/25 06:36:20;;;;;;;;;;;;;;;;;;2091163;28;1930;-80
2021/10/25 06:37:48;;;;;;;;;;;;;;;;;;2085305;28;1683;-80
2021/10/25 06:38:57;;;;;;;;;;;;;;;;;;2076936;28;1375;-80
2021/10/25 06:39:58;;;;;;;;;;;;;;;;;;2083050;28;1914;-80
2021/10/25 06:41:00;;;;;;;;;;;;;;;;;;2083106;28;1554;-80
2021/10/25 06:42:02;;;;;;;;;;;;;;;;;;2091490;28;1301;-79
2021/10/25 06:43:24;;;;;;;;;;;;;;;;;;2079272;28;1555;-80
2021/10/25 06:44:28;;;;;;;;;;;;;;;;;;2083342;28;1274;-80
2021/10/25 06:45:49;;;;;;;;;;;;;;;;;;2077252;28;1370;-80
2021/10/25 06:46:52;;;;;;;;;;;;;;;;;;2075838;28;1346;-80
2021/10/25 06:47:58;;;;;;;;;;;;;;;;;;2082717;28;1335;-80
2021/10/25 06:49:03;;;;;;;;;;;;;;;;;;2083764;28;1274;-80
2021/10/25 06:50:05;;;;;;;;;;;;;;;;;;2091991;28;1378;-79
2021/10/25 06:51:09;;;;;;;;;;;;;;;;;;2091326;28;1203;-79
2021/10/25 06:52:12;;;;;;;;;;;;;;;;;;2075954;28;1454;-80
2021/10/25 06:53:17;;;;;;;;;;;;;;;;;;2075186;28;1292;-79
2021/10/25 06:54:45;;;;;;;;;;;;;;;;;;2082742;28;1264;-78
2021/10/25 06:55:46;;;;;;;;;;;;;;;;;;2085187;28;2065;-78
2021/10/25 06:56:49;;;;;;;;;;;;;;;;;;2075158;28;1436;-78
2021/10/25 06:57:51;;;;;;;;;;;;;;;;;;2073769;28;1719;-79
2021/10/25 06:58:56;;;;;;;;;;;;;;;;;;2083721;28;1388;-79
2021/10/25 06:59:58;;;;;;;;;;;;;;;;;;2082756;28;1903;-79
2021/10/25 07:01:01;;;;;;;;;;;;;;;;;;2082934;28;1411;-79
2021/10/25 07:02:03;;;;;;;;;;;;;;;;;;2091456;28;1550;-80
2021/10/25 07:03:07;;;;;;;;;;;;;;;;;;2096164;28;2065;-79
2021/10/25 07:04:08;;;;;;;;;;;;;;;;;;2090829;28;1294;-78
2021/10/25 07:05:11;;;;;;;;;;;;;;;;;;2081121;28;1555;-79
2021/10/25 07:06:15;;;;;;;;;;;;;;;;;;2074581;28;1402;-79
2021/10/25 07:07:19;;;;;;;;;;;;;;;;;;2075244;28;1857;-78
2021/10/25 07:08:22;;;;;;;;;;;;;;;;;;2089187;28;1569;-79
2021/10/25 07:09:23;;;;;;;;;;;;;;;;;;2090342;28;1438;-79
2021/10/25 07:10:24;;;;;;;;;;;;;;;;;;2091299;28;1733;-79
2021/10/25 07:11:29;;;;;;;;;;;;;;;;;;2099340;28;1337;-79
2021/10/25 07:12:32;;;;;;;;;;;;;;;;;;2082902;28;1715;-79
2021/10/25 07:13:37;;;;;;;;;;;;;;;;;;2082842;28;1584;-79
2021/10/25 07:14:40;;;;;;;;;;;;;;;;;;2080750;28;1558;-79
2021/10/25 07:15:48;;;;;;;;;;;;;;;;;;2078957;28;1294;-80
2021/10/25 07:16:52;;;;;;;;;;;;;;;;;;2083152;28;1326;-79
2021/10/25 07:18:04;;;;;;;;;;;;;;;;;;2075639;28;1911;-79
2021/10/25 07:20:36;;;;;;;;;;;;;;;;;;2080075;28;1991;-79
2021/10/25 07:21:56;;;;;;;;;;;;;;;;;;2084217;28;1227;-80
2021/10/25 08:05:52;;;;;;;;;;;;;;;;;;2067491;28;1589;-80
2021/10/25 08:07:00;;;;;;;;;;;;;;;;;;2075892;28;1236;-80
2021/10/25 08:08:27;;;;;;;;;;;;;;;;;;2075085;28;1114;-80
2021/10/25 08:09:43;;;;;;;;;;;;;;;;;;2068417;28;1287;-81
2021/10/25 08:10:52;;;;;;;;;;;;;;;;;;2076465;28;1348;-81
2021/10/25 08:11:57;;;;;;;;;;;;;;;;;;2074412;28;1208;-81
2021/10/25 08:13:01;;;;;;;;;;;;;;;;;;2070742;28;2027;-81
2021/10/25 08:14:06;;;;;;;;;;;;;;;;;;2067417;28;1384;-81
2021/10/25 08:15:10;;;;;;;;;;;;;;;;;;2076458;28;1357;-81
2021/10/25 08:16:20;;;;;;;;;;;;;;;;;;2069673;28;1321;-82
2021/10/25 08:17:26;;;;;;;;;;;;;;;;;;2069061;28;1416;-80
2021/10/25 08:18:37;;;;;;;;;;;;;;;;;;2074780;28;1750;-80
2021/10/25 08:19:40;;;;;;;;;;;;;;;;;;2067717;28;1973;-80
2021/10/25 08:20:40;;;;;;;;;;;;;;;;;;2065863;28;2048;-80
2021/10/25 08:21:44;;;;;;;;;;;;;;;;;;2072934;28;1565;-80
2021/10/25 08:22:45;;;;;;;;;;;;;;;;;;2080098;28;1528;-80
2021/10/25 08:23:46;;;;;;;;;;;;;;;;;;2082365;28;1653;-80
2021/10/25 08:25:17;;;;;;;;;;;;;;;;;;2084789;28;1479;-79
2021/10/25 08:26:42;;;;;;;;;;;;;;;;;;2091716;28;1625;-81
2021/10/25 08:27:45;;;;;;;;;;;;;;;;;;2090290;28;1201;-81
2021/10/25 08:28:46;;;;;;;;;;;;;;;;;;2087652;28;1275;-80
2021/10/25 08:29:49;;;;;;;;;;;;;;;;;;2065887;28;1407;-81
2021/10/25 08:30:51;;;;;;;;;;;;;;;;;;2074431;28;1400;-81
2021/10/25 08:31:59;;;;;;;;;;;;;;;;;;2090776;28;1195;-81
2021/10/25 08:36:19;;;;;;;;;;;;;;;;;;2094913;28;1772;-81
2021/10/25 08:40:02;;;;;;;;;;;;;;;;;;2079919;28;1922;-80
2021/10/25 08:41:07;;;;;;;;;;;;;;;;;;2078840;28;1853;-81
2021/10/25 08:42:09;;;;;;;;;;;;;;;;;;2085459;28;1342;-80